Time;durP1;ratioP1;P1;durP2;ratioP2;P2;SDS_P1;SDS_P2;PMS_P1;PMS_P2;Temp;Humidity;BMP_temperature;BMP_pressure;BME280_temperature;BME280_humidity;BME280_pressure;Samples;Min_cycle;Max_cycle;Signal;HPM_P1;HPM_P2
2022/10/29 00:01:04;;;;;;;;;;;12.00;99.90;;;;;;6308263;22;19949;-62
2022/10/29 00:03:30;;;;;;;;;;;11.90;99.90;;;;;;6308399;22;19968;-63
2022/10/29 00:06:00;;;;;;;;;;;11.90;99.90;;;;;;6308383;22;20283;-63
2022/10/29 00:08:26;;;;;;;;;;;11.90;99.90;;;;;;6308175;22;19994;-63
2022/10/29 00:10:51;;;;;;;;;;;12.00;99.90;;;;;;6308418;22;20328;-63
2022/10/29 00:13:17;;;;;;;;;;;11.90;99.90;;;;;;6308511;22;19925;-62
2022/10/29 00:15:43;;;;;;;;;;;11.90;99.90;;;;;;6280940;22;20012;-63
2022/10/29 00:18:08;;;;;;;;;;;11.90;99.90;;;;;;6308729;22;19915;-63
2022/10/29 00:20:34;;;;;;;;;;;11.90;99.90;;;;;;6308056;22;19944;-63
2022/10/29 00:22:59;;;;;;;;;;;11.90;99.90;;;;;;6308071;22;19919;-63
2022/10/29 00:25:25;;;;;;;;;;;11.90;99.90;;;;;;6307948;22;19923;-63
2022/10/29 00:27:50;;;;;;;;;;;11.90;99.90;;;;;;6308413;22;19915;-63
2022/10/29 00:30:19;;;;;;;;;;;11.90;99.90;;;;;;6281412;22;19915;-62
2022/10/29 00:32:45;;;;;;;;;;;11.90;99.90;;;;;;6307940;22;19914;-62
2022/10/29 00:35:10;;;;;;;;;;;11.90;99.90;;;;;;6306675;22;19954;-62
2022/10/29 00:37:36;;;;;;;;;;;11.80;99.90;;;;;;6308292;22;19964;-63
2022/10/29 00:40:02;;;;;;;;;;;11.90;99.90;;;;;;6307817;22;19915;-62
2022/10/29 00:42:28;;;;;;;;;;;11.80;99.90;;;;;;6306570;22;19954;-63
2022/10/29 00:44:57;;;;;;;;;;;11.90;99.90;;;;;;6280306;22;19918;-62
2022/10/29 00:47:24;;;;;;;;;;;11.90;99.90;;;;;;6308228;22;19992;-62
2022/10/29 00:49:53;;;;;;;;;;;11.80;99.90;;;;;;6280503;22;19919;-62
2022/10/29 00:52:20;;;;;;;;;;;11.80;99.90;;;;;;6306424;22;19915;-61
2022/10/29 00:54:49;;;;;;;;;;;11.80;99.90;;;;;;6280446;22;19922;-61
2022/10/29 00:57:18;;;;;;;;;;;11.80;99.90;;;;;;6280334;22;19954;-61
2022/10/29 00:59:45;;;;;;;;;;;11.70;99.90;;;;;;6308161;22;19989;-61
2022/10/29 01:02:10;;;;;;;;;;;11.70;99.90;;;;;;6308000;22;19926;-61
2022/10/29 01:04:36;;;;;;;;;;;11.70;99.90;;;;;;6254705;22;19994;-61
2022/10/29 01:07:02;;;;;;;;;;;11.70;99.90;;;;;;6308048;22;19914;-61
2022/10/29 01:09:28;;;;;;;;;;;11.70;99.90;;;;;;6308105;22;20002;-61
2022/10/29 01:12:08;;;;;;;;;;;11.70;99.90;;;;;;6307776;22;19998;-61
2022/10/29 01:14:45;;;;;;;;;;;11.70;99.90;;;;;;6280438;22;19950;-61
2022/10/29 01:17:19;;;;;;;;;;;11.60;99.90;;;;;;6305790;22;19918;-61
2022/10/29 01:19:56;;;;;;;;;;;11.60;99.90;;;;;;6307942;22;19919;-61
2022/10/29 01:22:44;;;;;;;;;;;11.60;99.90;;;;;;6280347;22;19915;-61
2022/10/29 01:25:28;;;;;;;;;;;11.50;99.90;;;;;;6307535;22;20336;-61
2022/10/29 01:28:08;;;;;;;;;;;11.50;99.90;;;;;;6280078;22;19982;-61
2022/10/29 01:30:44;;;;;;;;;;;11.40;99.90;;;;;;6307898;22;19939;-61
2022/10/29 01:33:13;;;;;;;;;;;11.40;99.90;;;;;;6280299;22;19989;-61
2022/10/29 01:35:39;;;;;;;;;;;11.40;99.90;;;;;;6307472;22;20232;-61
2022/10/29 01:38:16;;;;;;;;;;;11.30;99.90;;;;;;6307436;22;19944;-61
2022/10/29 01:40:50;;;;;;;;;;;11.30;99.90;;;;;;6307876;22;19986;-61
2022/10/29 01:43:33;;;;;;;;;;;11.30;99.90;;;;;;6307938;22;19930;-61
2022/10/29 01:46:03;;;;;;;;;;;11.20;99.90;;;;;;6307772;22;20235;-61
2022/10/29 01:48:31;;;;;;;;;;;11.20;99.90;;;;;;6280121;22;19914;-62
2022/10/29 01:50:59;;;;;;;;;;;11.20;99.90;;;;;;6307933;22;19921;-62
2022/10/29 01:53:27;;;;;;;;;;;11.00;99.90;;;;;;6307791;22;19965;-62
2022/10/29 01:55:53;;;;;;;;;;;11.10;99.90;;;;;;6308108;22;19915;-62
2022/10/29 01:58:21;;;;;;;;;;;11.00;99.90;;;;;;6280577;22;19915;-62
2022/10/29 02:01:10;;;;;;;;;;;11.10;99.90;;;;;;6307715;22;19958;-62
2022/10/29 02:03:55;;;;;;;;;;;11.00;99.90;;;;;;6280714;22;19915;-62
2022/10/29 02:06:30;;;;;;;;;;;11.00;99.90;;;;;;6309401;22;19922;-62
2022/10/29 02:09:02;;;;;;;;;;;10.90;99.90;;;;;;6282702;22;19915;-62
2022/10/29 02:11:34;;;;;;;;;;;10.90;99.90;;;;;;6309843;22;19915;-62
2022/10/29 02:14:06;;;;;;;;;;;10.90;99.90;;;;;;6309773;22;19919;-62
2022/10/29 02:16:36;;;;;;;;;;;10.90;99.90;;;;;;6309436;22;19990;-62
2022/10/29 02:19:01;;;;;;;;;;;10.80;99.90;;;;;;6282099;22;19914;-62
2022/10/29 02:21:27;;;;;;;;;;;10.70;99.90;;;;;;6309740;22;19915;-61
2022/10/29 02:23:52;;;;;;;;;;;10.70;99.90;;;;;;6256430;22;19990;-62
2022/10/29 02:26:18;;;;;;;;;;;10.70;99.90;;;;;;6309182;22;19922;-61
2022/10/29 02:28:44;;;;;;;;;;;11.10;99.90;;;;;;6309646;22;19915;-62
2022/10/29 02:31:09;;;;;;;;;;;10.70;99.90;;;;;;6281980;22;19919;-61
2022/10/29 02:33:35;;;;;;;;;;;10.70;99.90;;;;;;6309355;22;19915;-61
2022/10/29 02:36:00;;;;;;;;;;;10.70;99.90;;;;;;6309186;22;20247;-61
2022/10/29 02:38:26;;;;;;;;;;;10.80;99.90;;;;;;6282129;22;19950;-61
2022/10/29 02:40:52;;;;;;;;;;;10.80;99.90;;;;;;6309385;22;20278;-62
2022/10/29 02:43:21;;;;;;;;;;;10.70;99.90;;;;;;6307499;22;20220;-62
2022/10/29 02:45:47;;;;;;;;;;;10.70;99.90;;;;;;6309161;22;19919;-62
2022/10/29 02:48:13;;;;;;;;;;;10.70;99.90;;;;;;6309033;22;19915;-62
2022/10/29 02:50:39;;;;;;;;;;;10.70;99.90;;;;;;6309368;22;19915;-62
2022/10/29 02:53:08;;;;;;;;;;;10.60;99.90;;;;;;6309278;22;19915;-62
2022/10/29 02:55:33;;;;;;;;;;;10.70;99.90;;;;;;6308775;22;19915;-62
2022/10/29 02:58:02;;;;;;;;;;;10.70;99.90;;;;;;6308843;22;19955;-62
2022/10/29 03:00:28;;;;;;;;;;;10.60;99.90;;;;;;6281381;22;19922;-62
2022/10/29 03:02:53;;;;;;;;;;;10.70;99.90;;;;;;6308999;22;19915;-61
2022/10/29 03:05:19;;;;;;;;;;;10.60;99.90;;;;;;6308619;22;19925;-62
2022/10/29 03:07:45;;;;;;;;;;;10.50;99.90;;;;;;6308665;22;19961;-61
2022/10/29 03:10:10;;;;;;;;;;;10.50;99.90;;;;;;6308764;22;19964;-61
2022/10/29 03:12:36;;;;;;;;;;;10.50;99.90;;;;;;6308686;22;19921;-63
2022/10/29 03:15:02;;;;;;;;;;;10.50;99.90;;;;;;6280800;22;19915;-65
2022/10/29 03:17:30;;;;;;;;;;;10.60;99.90;;;;;;6308519;22;20339;-65
2022/10/29 03:19:58;;;;;;;;;;;10.60;99.90;;;;;;6308640;22;19922;-65
2022/10/29 03:22:24;;;;;;;;;;;10.60;99.90;;;;;;6308916;22;19915;-65
2022/10/29 03:24:51;;;;;;;;;;;10.60;99.90;;;;;;6307133;22;19930;-65
2022/10/29 03:27:26;;;;;;;;;;;10.60;99.90;;;;;;6308940;22;19938;-65
2022/10/29 03:29:51;;;;;;;;;;;10.60;99.90;;;;;;6308844;22;20247;-65
2022/10/29 03:32:17;;;;;;;;;;;10.60;99.90;;;;;;6307944;22;20335;-65
2022/10/29 03:34:43;;;;;;;;;;;10.60;99.90;;;;;;6308827;22;19922;-65
2022/10/29 03:37:08;;;;;;;;;;;10.60;99.90;;;;;;6308727;22;19915;-65
2022/10/29 03:39:34;;;;;;;;;;;10.60;99.90;;;;;;6308279;22;19914;-65
2022/10/29 03:41:59;;;;;;;;;;;10.60;99.90;;;;;;6307419;22;19972;-66
2022/10/29 03:44:26;;;;;;;;;;;10.60;99.90;;;;;;6308281;22;19923;-62
2022/10/29 03:46:54;;;;;;;;;;;10.60;99.90;;;;;;6308336;22;20324;-62
2022/10/29 03:49:19;;;;;;;;;;;10.60;99.90;;;;;;6280095;22;19915;-62
2022/10/29 03:51:47;;;;;;;;;;;10.70;99.90;;;;;;6308693;22;19963;-62
2022/10/29 03:54:12;;;;;;;;;;;10.60;99.90;;;;;;6308387;22;19922;-62
2022/10/29 03:56:38;;;;;;;;;;;10.60;99.90;;;;;;6308645;22;19915;-61
2022/10/29 03:59:04;;;;;;;;;;;10.70;99.90;;;;;;6308647;22;20296;-62
2022/10/29 04:01:30;;;;;;;;;;;10.70;99.90;;;;;;6308629;22;20305;-62
2022/10/29 04:03:56;;;;;;;;;;;10.70;99.90;;;;;;6308469;22;20312;-62
2022/10/29 04:06:21;;;;;;;;;;;10.80;99.90;;;;;;6308070;22;19922;-61
2022/10/29 04:08:47;;;;;;;;;;;10.90;99.90;;;;;;6308522;22;19915;-62
2022/10/29 04:11:13;;;;;;;;;;;11.00;99.90;;;;;;6280825;22;19918;-62
2022/10/29 04:13:39;;;;;;;;;;;11.00;99.90;;;;;;6281105;22;19922;-62
2022/10/29 04:16:04;;;;;;;;;;;11.00;99.90;;;;;;6308443;22;19919;-62
2022/10/29 04:18:30;;;;;;;;;;;11.40;99.90;;;;;;6308593;22;19982;-62
2022/10/29 04:21:02;;;;;;;;;;;9.80;99.90;;;;;;6279370;22;20247;-62
2022/10/29 04:23:29;;;;;;;;;;;11.10;99.90;;;;;;6308653;22;19915;-62
2022/10/29 04:25:55;;;;;;;;;;;11.20;99.90;;;;;;6307933;22;20347;-62
2022/10/29 04:28:25;;;;;;;;;;;11.20;99.90;;;;;;6308483;22;19918;-62
2022/10/29 04:30:51;;;;;;;;;;;11.20;99.90;;;;;;6307576;22;19915;-62
2022/10/29 04:33:18;;;;;;;;;;;11.20;99.90;;;;;;6280812;22;19915;-62
2022/10/29 04:35:54;;;;;;;;;;;11.20;99.90;;;;;;6308394;22;19915;-62
2022/10/29 04:38:20;;;;;;;;;;;11.20;99.90;;;;;;6308418;22;19969;-62
2022/10/29 04:40:46;;;;;;;;;;;11.30;99.90;;;;;;6308298;22;20316;-62
2022/10/29 04:43:16;;;;;;;;;;;11.30;99.90;;;;;;6306155;22;19915;-62
2022/10/29 04:45:43;;;;;;;;;;;11.40;99.90;;;;;;6279605;22;19919;-62
2022/10/29 04:48:09;;;;;;;;;;;11.40;99.90;;;;;;6308380;22;19950;-62
2022/10/29 04:50:38;;;;;;;;;;;11.40;99.90;;;;;;6308394;22;20239;-62
2022/10/29 04:53:07;;;;;;;;;;;11.50;99.90;;;;;;6308367;22;19985;-62
2022/10/29 04:55:45;;;;;;;;;;;11.60;99.90;;;;;;6308463;22;20261;-63
2022/10/29 04:58:12;;;;;;;;;;;11.60;99.90;;;;;;6308316;22;19944;-62
2022/10/29 05:00:47;;;;;;;;;;;11.70;99.90;;;;;;6308009;22;19915;-62
2022/10/29 05:03:12;;;;;;;;;;;11.70;99.90;;;;;;6307947;22;19963;-62
2022/10/29 05:05:41;;;;;;;;;;;11.70;99.90;;;;;;6307823;22;20001;-62
2022/10/29 05:08:10;;;;;;;;;;;11.70;99.90;;;;;;6306586;22;19919;-62
2022/10/29 05:10:37;;;;;;;;;;;11.70;99.90;;;;;;6308313;22;19915;-62
2022/10/29 05:13:09;;;;;;;;;;;11.60;99.90;;;;;;6280695;22;19914;-63
2022/10/29 05:15:39;;;;;;;;;;;11.60;99.90;;;;;;6307675;22;19945;-63
2022/10/29 05:18:05;;;;;;;;;;;10.80;99.90;;;;;;6280671;22;19946;-62
2022/10/29 05:20:31;;;;;;;;;;;11.60;99.90;;;;;;6308058;22;19926;-62
2022/10/29 05:23:06;;;;;;;;;;;11.70;99.90;;;;;;6308555;22;20320;-62
2022/10/29 05:25:33;;;;;;;;;;;11.60;99.90;;;;;;6308064;22;20213;-62
2022/10/29 05:28:17;;;;;;;;;;;11.70;99.90;;;;;;6308259;22;20007;-62
2022/10/29 05:30:43;;;;;;;;;;;11.70;99.90;;;;;;6307793;22;20351;-62
2022/10/29 05:33:09;;;;;;;;;;;11.70;99.90;;;;;;6280619;22;19915;-62
2022/10/29 05:35:35;;;;;;;;;;;11.70;99.90;;;;;;6308249;22;19993;-62
2022/10/29 05:38:01;;;;;;;;;;;11.70;99.90;;;;;;6309021;22;19915;-62
2022/10/29 05:40:27;;;;;;;;;;;11.80;99.90;;;;;;6282429;22;19961;-62
2022/10/29 05:42:52;;;;;;;;;;;11.80;99.90;;;;;;6310207;22;19914;-62
2022/10/29 05:45:19;;;;;;;;;;;11.80;99.90;;;;;;6310061;22;19922;-62
2022/10/29 05:47:44;;;;;;;;;;;11.80;99.90;;;;;;6309698;22;20389;-62
2022/10/29 05:50:10;;;;;;;;;;;11.80;99.90;;;;;;6309753;22;19918;-62
2022/10/29 05:52:36;;;;;;;;;;;11.80;99.90;;;;;;6309956;22;19922;-62
2022/10/29 05:55:01;;;;;;;;;;;11.80;99.90;;;;;;6282751;22;19963;-62
2022/10/29 05:57:27;;;;;;;;;;;11.80;99.90;;;;;;6309718;22;20047;-62
2022/10/29 05:59:53;;;;;;;;;;;11.90;99.90;;;;;;6309616;22;19930;-62
2022/10/29 06:02:18;;;;;;;;;;;11.80;99.90;;;;;;6309984;22;19961;-62
2022/10/29 06:04:44;;;;;;;;;;;11.80;99.90;;;;;;6309845;22;19958;-62
2022/10/29 06:07:12;;;;;;;;;;;11.90;99.90;;;;;;6309914;22;19990;-62
2022/10/29 06:09:38;;;;;;;;;;;11.80;99.90;;;;;;6309615;22;19953;-62
2022/10/29 06:12:04;;;;;;;;;;;11.90;99.90;;;;;;6309538;22;19914;-62
2022/10/29 06:14:30;;;;;;;;;;;11.90;99.90;;;;;;6309073;22;19918;-62
2022/10/29 06:16:55;;;;;;;;;;;11.90;99.90;;;;;;6309112;22;19919;-62
2022/10/29 06:19:24;;;;;;;;;;;11.80;99.90;;;;;;6309540;22;20362;-62
2022/10/29 06:21:50;;;;;;;;;;;11.90;99.90;;;;;;6308545;22;19923;-62
2022/10/29 06:24:15;;;;;;;;;;;11.90;99.90;;;;;;6307779;22;19919;-62
2022/10/29 06:26:41;;;;;;;;;;;11.80;99.90;;;;;;6307839;22;19941;-62
2022/10/29 06:29:06;;;;;;;;;;;11.90;99.90;;;;;;6307710;22;19922;-62
2022/10/29 06:31:32;;;;;;;;;;;11.80;99.90;;;;;;6308948;22;19919;-62
2022/10/29 06:33:57;;;;;;;;;;;11.80;99.90;;;;;;6309256;22;19989;-63
2022/10/29 06:36:25;;;;;;;;;;;11.90;99.90;;;;;;6309273;22;19915;-65
2022/10/29 06:38:55;;;;;;;;;;;11.90;99.90;;;;;;6309357;22;19922;-65
2022/10/29 06:41:24;;;;;;;;;;;11.90;99.90;;;;;;6308434;22;19972;-65
2022/10/29 06:43:49;;;;;;;;;;;11.90;99.90;;;;;;6307517;22;19939;-66
2022/10/29 06:46:18;;;;;;;;;;;11.90;99.90;;;;;;6307221;22;20232;-66
2022/10/29 06:48:44;;;;;;;;;;;11.90;99.90;;;;;;6307343;22;20006;-66
2022/10/29 06:51:09;;;;;;;;;;;12.00;99.90;;;;;;6307569;22;20248;-66
2022/10/29 06:53:35;;;;;;;;;;;12.00;99.90;;;;;;6307476;22;20320;-66
2022/10/29 06:56:00;;;;;;;;;;;12.00;99.90;;;;;;6307388;22;19936;-65
2022/10/29 06:58:26;;;;;;;;;;;12.00;99.90;;;;;;6308820;22;20660;-65
2022/10/29 07:00:52;;;;;;;;;;;12.00;99.90;;;;;;6309392;22;19915;-66
2022/10/29 07:03:18;;;;;;;;;;;12.10;99.90;;;;;;6309237;22;19915;-66
2022/10/29 07:05:46;;;;;;;;;;;12.10;99.90;;;;;;6308986;22;19923;-66
2022/10/29 07:08:11;;;;;;;;;;;12.00;99.90;;;;;;6308802;22;19915;-65
2022/10/29 07:10:37;;;;;;;;;;;12.10;99.90;;;;;;6308835;22;20336;-65
2022/10/29 07:13:03;;;;;;;;;;;12.20;99.90;;;;;;6309207;22;19914;-65
2022/10/29 07:15:32;;;;;;;;;;;12.10;99.90;;;;;;6308941;22;19960;-65
2022/10/29 07:17:59;;;;;;;;;;;12.20;99.90;;;;;;6308802;22;19915;-65
2022/10/29 07:20:26;;;;;;;;;;;12.20;99.90;;;;;;6281567;22;19919;-65
2022/10/29 07:22:54;;;;;;;;;;;12.30;99.90;;;;;;6309192;22;19915;-65
2022/10/29 07:25:19;;;;;;;;;;;12.30;99.90;;;;;;6281134;22;20324;-65
2022/10/29 07:27:45;;;;;;;;;;;12.30;99.90;;;;;;6308738;22;19915;-65
2022/10/29 07:30:12;;;;;;;;;;;12.30;99.90;;;;;;6308852;22;19915;-65
2022/10/29 07:32:38;;;;;;;;;;;12.40;99.90;;;;;;6281024;22;20272;-65
2022/10/29 07:35:04;;;;;;;;;;;12.40;99.90;;;;;;6281080;22;20287;-65
2022/10/29 07:37:30;;;;;;;;;;;12.40;99.90;;;;;;6308759;22;19927;-65
2022/10/29 07:39:55;;;;;;;;;;;12.50;99.90;;;;;;6308129;22;19915;-65
2022/10/29 07:42:26;;;;;;;;;;;12.50;99.90;;;;;;6306948;22;19986;-66
2022/10/29 07:44:53;;;;;;;;;;;12.50;99.90;;;;;;6307885;22;19926;-66
2022/10/29 07:47:18;;;;;;;;;;;12.60;99.90;;;;;;6280263;22;20376;-65
2022/10/29 07:49:44;;;;;;;;;;;12.60;99.90;;;;;;6307412;22;19950;-65
2022/10/29 07:52:10;;;;;;;;;;;12.60;99.90;;;;;;6306958;22;19972;-65
2022/10/29 07:54:35;;;;;;;;;;;12.80;99.90;;;;;;6307736;22;19968;-65
2022/10/29 07:57:02;;;;;;;;;;;12.70;99.90;;;;;;6307733;22;19914;-65
2022/10/29 07:59:27;;;;;;;;;;;12.80;99.90;;;;;;6307311;22;19946;-65
2022/10/29 08:01:53;;;;;;;;;;;12.80;99.90;;;;;;6307079;22;19915;-66
2022/10/29 08:04:22;;;;;;;;;;;12.90;99.90;;;;;;6306830;22;19919;-66
2022/10/29 08:06:48;;;;;;;;;;;12.90;99.90;;;;;;6307694;22;19921;-66
2022/10/29 08:09:14;;;;;;;;;;;13.00;99.90;;;;;;6306506;22;19945;-66
2022/10/29 08:11:43;;;;;;;;;;;13.10;99.90;;;;;;6307333;22;19922;-66
2022/10/29 08:14:08;;;;;;;;;;;13.20;99.90;;;;;;6306778;22;19919;-66
2022/10/29 08:16:34;;;;;;;;;;;13.40;99.90;;;;;;6306816;22;19958;-66
2022/10/29 08:19:00;;;;;;;;;;;13.50;99.90;;;;;;6307199;22;19918;-66
2022/10/29 08:21:26;;;;;;;;;;;13.60;99.90;;;;;;6307552;22;19965;-66
2022/10/29 08:23:51;;;;;;;;;;;13.60;99.90;;;;;;6308648;22;19950;-66
2022/10/29 08:26:18;;;;;;;;;;;13.70;99.90;;;;;;6308413;22;20010;-66
2022/10/29 08:28:43;;;;;;;;;;;13.80;99.90;;;;;;6307788;22;19914;-64
2022/10/29 08:31:11;;;;;;;;;;;13.80;99.90;;;;;;6280882;22;19919;-64
2022/10/29 08:33:36;;;;;;;;;;;13.80;99.90;;;;;;6308167;22;20032;-64
2022/10/29 08:36:02;;;;;;;;;;;13.90;99.90;;;;;;6308094;22;19922;-64
2022/10/29 08:38:28;;;;;;;;;;;13.90;99.90;;;;;;6308081;22;19915;-64
2022/10/29 08:41:16;;;;;;;;;;;13.90;99.90;;;;;;6308331;22;19958;-64
2022/10/29 08:44:00;;;;;;;;;;;14.10;99.90;;;;;;6308067;22;19965;-64
2022/10/29 08:46:28;;;;;;;;;;;14.10;99.90;;;;;;6308445;22;19923;-64
2022/10/29 08:48:59;;;;;;;;;;;14.20;99.90;;;;;;6308424;22;19938;-64
2022/10/29 08:51:27;;;;;;;;;;;14.50;99.90;;;;;;6305096;22;19968;-64
2022/10/29 08:53:54;;;;;;;;;;;14.90;99.90;;;;;;6307939;22;19958;-64
2022/10/29 08:56:26;;;;;;;;;;;15.10;99.90;;;;;;6307909;22;19968;-64
2022/10/29 08:58:54;;;;;;;;;;;15.30;99.90;;;;;;6308314;22;19915;-64
2022/10/29 09:01:20;;;;;;;;;;;15.30;99.90;;;;;;6307967;22;19915;-64
2022/10/29 09:03:50;;;;;;;;;;;15.30;99.90;;;;;;6308319;22;20216;-64
2022/10/29 09:06:22;;;;;;;;;;;15.20;99.90;;;;;;6307727;22;20013;-64
2022/10/29 09:08:51;;;;;;;;;;;14.40;99.90;;;;;;6308119;22;19922;-64
2022/10/29 09:11:33;;;;;;;;;;;15.30;99.90;;;;;;6307945;22;19919;-64
2022/10/29 09:13:58;;;;;;;;;;;15.40;99.90;;;;;;6282253;22;19922;-64
2022/10/29 09:16:32;;;;;;;;;;;15.40;99.90;;;;;;6309628;22;19919;-64
2022/10/29 09:19:16;;;;;;;;;;;15.50;99.90;;;;;;6310519;22;19914;-64
2022/10/29 09:22:04;;;;;;;;;;;15.40;99.90;;;;;;6310032;22;19922;-64
2022/10/29 09:24:34;;;;;;;;;;;15.50;99.90;;;;;;6310244;22;19919;-64
2022/10/29 09:27:14;;;;;;;;;;;15.50;99.90;;;;;;6309098;22;19968;-64
2022/10/29 09:29:45;;;;;;;;;;;15.70;99.90;;;;;;6282411;22;19977;-64
2022/10/29 09:32:25;;;;;;;;;;;15.60;99.90;;;;;;6309976;22;19915;-64
2022/10/29 09:34:55;;;;;;;;;;;15.80;99.90;;;;;;6310353;22;20273;-64
2022/10/29 09:37:31;;;;;;;;;;;15.80;99.90;;;;;;6282464;22;19915;-64
2022/10/29 09:39:59;;;;;;;;;;;15.90;99.90;;;;;;6309954;22;19915;-64
2022/10/29 09:42:30;;;;;;;;;;;16.00;99.90;;;;;;6309829;22;19925;-64
2022/10/29 09:44:57;;;;;;;;;;;16.00;99.90;;;;;;6282389;22;20381;-64
2022/10/29 09:47:32;;;;;;;;;;;16.10;99.90;;;;;;6310483;22;19915;-64
2022/10/29 09:50:10;;;;;;;;;;;16.20;99.90;;;;;;6282127;22;19919;-64
2022/10/29 09:52:38;;;;;;;;;;;16.40;99.90;;;;;;6282213;22;19937;-64
2022/10/29 09:55:05;;;;;;;;;;;16.50;99.90;;;;;;6309954;22;19950;-64
2022/10/29 09:57:33;;;;;;;;;;;16.70;99.90;;;;;;6308829;22;19941;-64
2022/10/29 10:00:00;;;;;;;;;;;16.80;99.90;;;;;;6309916;22;19914;-64
2022/10/29 10:02:31;;;;;;;;;;;16.90;99.90;;;;;;6309607;22;19946;-64
2022/10/29 10:05:03;;;;;;;;;;;17.00;99.90;;;;;;6310121;22;19919;-64
2022/10/29 10:07:30;;;;;;;;;;;17.00;99.90;;;;;;6309903;22;20248;-64
2022/10/29 10:10:04;;;;;;;;;;;17.10;99.90;;;;;;6310031;22;19997;-64
2022/10/29 10:12:35;;;;;;;;;;;17.20;99.90;;;;;;6309397;22;19915;-64
2022/10/29 10:15:21;;;;;;;;;;;17.30;99.90;;;;;;6281494;22;20351;-64
2022/10/29 10:17:53;;;;;;;;;;;17.40;99.90;;;;;;6307106;22;19964;-65
2022/10/29 10:20:24;;;;;;;;;;;17.40;99.90;;;;;;6280931;22;19980;-65
2022/10/29 10:22:51;;;;;;;;;;;17.50;99.90;;;;;;6308640;22;19926;-65
2022/10/29 10:25:30;;;;;;;;;;;17.60;99.90;;;;;;6308627;22;19973;-65
2022/10/29 10:27:55;;;;;;;;;;;17.60;99.90;;;;;;6309252;22;19954;-64
2022/10/29 10:30:22;;;;;;;;;;;17.70;99.90;;;;;;6281307;22;19914;-64
2022/10/29 10:32:48;;;;;;;;;;;17.70;99.90;;;;;;6281130;22;20290;-64
2022/10/29 10:35:29;;;;;;;;;;;17.80;99.90;;;;;;6309631;22;20073;-64
2022/10/29 10:37:55;;;;;;;;;;;17.90;99.90;;;;;;6308590;22;20389;-64
2022/10/29 10:40:23;;;;;;;;;;;18.00;99.90;;;;;;6281945;22;19926;-64
2022/10/29 10:42:53;;;;;;;;;;;18.10;99.90;;;;;;6309429;22;19971;-64
2022/10/29 10:45:22;;;;;;;;;;;18.10;99.90;;;;;;6308759;22;19935;-64
2022/10/29 10:47:49;;;;;;;;;;;18.10;99.90;;;;;;6308675;22;19950;-64
2022/10/29 10:50:26;;;;;;;;;;;18.20;99.90;;;;;;6281488;22;19919;-64
2022/10/29 10:53:00;;;;;;;;;;;18.30;99.90;;;;;;6309247;22;19922;-64
2022/10/29 10:55:26;;;;;;;;;;;18.40;99.90;;;;;;6309330;22;20240;-64
2022/10/29 10:57:59;;;;;;;;;;;18.30;99.90;;;;;;6308967;22;19922;-64
2022/10/29 11:00:26;;;;;;;;;;;18.40;99.90;;;;;;6309575;22;19946;-64
2022/10/29 11:02:52;;;;;;;;;;;18.50;99.90;;;;;;6309426;22;19921;-64
2022/10/29 11:05:18;;;;;;;;;;;18.60;99.90;;;;;;6281452;22;19918;-64
2022/10/29 11:07:47;;;;;;;;;;;18.70;99.90;;;;;;6306149;22;19921;-64
2022/10/29 11:10:14;;;;;;;;;;;18.70;99.90;;;;;;6307166;22;19998;-64
2022/10/29 11:12:49;;;;;;;;;;;18.70;99.90;;;;;;6307940;22;19969;-64
2022/10/29 11:15:14;;;;;;;;;;;18.80;99.90;;;;;;6307206;22;19914;-64
2022/10/29 11:17:48;;;;;;;;;;;18.80;99.90;;;;;;6307459;22;20019;-64
2022/10/29 11:20:20;;;;;;;;;;;18.80;99.90;;;;;;6307264;22;19922;-64
2022/10/29 11:22:49;;;;;;;;;;;18.80;99.90;;;;;;6308118;22;19918;-64
2022/10/29 11:25:17;;;;;;;;;;;18.80;99.90;;;;;;6279746;22;19919;-64
2022/10/29 11:27:50;;;;;;;;;;;18.80;99.90;;;;;;6307678;22;19915;-65
2022/10/29 11:30:16;;;;;;;;;;;18.80;99.90;;;;;;6307188;22;20328;-65
2022/10/29 11:32:48;;;;;;;;;;;18.80;99.90;;;;;;6307717;22;19943;-65
2022/10/29 11:35:16;;;;;;;;;;;18.80;99.90;;;;;;6306395;22;19922;-65
2022/10/29 11:37:46;;;;;;;;;;;18.80;99.90;;;;;;6307872;22;20307;-65
2022/10/29 11:40:27;;;;;;;;;;;18.80;99.90;;;;;;6306812;22;19919;-65
2022/10/29 11:42:52;;;;;;;;;;;18.80;99.90;;;;;;6307459;22;20323;-65
2022/10/29 11:45:38;;;;;;;;;;;18.80;99.90;;;;;;6306123;22;19919;-65
2022/10/29 11:48:07;;;;;;;;;;;18.80;99.90;;;;;;6307747;22;20244;-65
2022/10/29 11:50:37;;;;;;;;;;;18.80;99.90;;;;;;6280181;22;20228;-66
2022/10/29 11:53:22;;;;;;;;;;;18.80;99.90;;;;;;6281013;22;19915;-65
2022/10/29 11:56:02;;;;;;;;;;;18.80;99.90;;;;;;6281115;22;20287;-65
2022/10/29 11:58:36;;;;;;;;;;;21.30;99.90;;;;;;6281101;22;19915;-65
2022/10/29 12:01:21;;;;;;;;;;;18.90;99.90;;;;;;6308311;22;19915;-65
2022/10/29 12:03:59;;;;;;;;;;;19.00;99.90;;;;;;6280741;22;19933;-65
2022/10/29 12:06:38;;;;;;;;;;;19.20;99.90;;;;;;6307618;22;19922;-65
2022/10/29 12:09:26;;;;;;;;;;;19.20;99.90;;;;;;6306685;22;20001;-65
2022/10/29 12:12:07;;;;;;;;;;;19.30;99.90;;;;;;6234951;22;19934;-65
2022/10/29 12:14:35;;;;;;;;;;;19.30;99.90;;;;;;6307080;22;19937;-65
2022/10/29 12:17:14;;;;;;;;;;;19.30;99.90;;;;;;6280120;22;19930;-65
2022/10/29 12:19:41;;;;;;;;;;;19.30;99.90;;;;;;6308460;22;19918;-65
2022/10/29 12:22:12;;;;;;;;;;;19.40;99.90;;;;;;6308186;22;19973;-66
2022/10/29 12:24:56;;;;;;;;;;;19.40;99.90;;;;;;6308541;22;19926;-65
2022/10/29 12:27:40;;;;;;;;;;;19.40;99.90;;;;;;6308565;22;19964;-65
2022/10/29 12:30:08;;;;;;;;;;;19.40;99.90;;;;;;6281341;22;19914;-65
2022/10/29 12:32:58;;;;;;;;;;;19.50;99.90;;;;;;6308100;22;19915;-65
2022/10/29 12:35:28;;;;;;;;;;;19.60;99.90;;;;;;6308096;22;20044;-65
2022/10/29 12:38:00;;;;;;;;;;;19.70;99.90;;;;;;6280762;22;19915;-65
2022/10/29 12:40:31;;;;;;;;;;;19.60;99.90;;;;;;6308039;22;19915;-65
2022/10/29 12:42:59;;;;;;;;;;;19.60;99.90;;;;;;6308419;22;19964;-65
2022/10/29 12:45:38;;;;;;;;;;;19.70;99.90;;;;;;6308432;22;19997;-64
2022/10/29 12:48:06;;;;;;;;;;;19.60;99.90;;;;;;6279687;22;20248;-64
2022/10/29 12:50:43;;;;;;;;;;;19.70;99.90;;;;;;6280666;22;19915;-64
2022/10/29 12:53:12;;;;;;;;;;;19.60;99.90;;;;;;6308379;22;19922;-64
2022/10/29 12:55:38;;;;;;;;;;;19.60;99.90;;;;;;6308341;22;19915;-64
2022/10/29 12:58:22;;;;;;;;;;;19.60;99.90;;;;;;6307671;22;20229;-64
2022/10/29 13:00:50;;;;;;;;;;;20.10;99.90;;;;;;6280710;22;19980;-64
2022/10/29 13:03:34;;;;;;;;;;;19.60;99.90;;;;;;6308344;22;19919;-64
2022/10/29 13:06:20;;;;;;;;;;;19.60;99.90;;;;;;6308108;22;19923;-64
2022/10/29 13:08:54;;;;;;;;;;;19.70;99.90;;;;;;6307878;22;20351;-65
2022/10/29 13:11:22;;;;;;;;;;;19.80;99.90;;;;;;6280747;22;19950;-65
2022/10/29 13:13:51;;;;;;;;;;;19.80;99.90;;;;;;6280600;22;19918;-65
2022/10/29 13:16:19;;;;;;;;;;;19.90;99.90;;;;;;6307917;22;19919;-65
2022/10/29 13:18:59;;;;;;;;;;;19.90;99.90;;;;;;6308273;22;19915;-64
2022/10/29 13:22:00;;;;;;;;;;;20.00;99.90;;;;;;6308290;22;19985;-65
2022/10/29 13:24:26;;;;;;;;;;;20.10;99.90;;;;;;6128863;23;19924;-65
2022/10/29 13:27:02;;;;;;;;;;;20.20;99.90;;;;;;6153701;23;19920;-64
2022/10/29 13:29:40;;;;;;;;;;;20.20;99.90;;;;;;6128990;23;20369;-65
2022/10/29 13:32:06;;;;;;;;;;;20.20;99.90;;;;;;6152493;23;20010;-65
2022/10/29 13:34:50;;;;;;;;;;;20.10;99.90;;;;;;6153660;23;19917;-65
2022/10/29 13:37:34;;;;;;;;;;;20.10;99.90;;;;;;6152364;23;19920;-65
2022/10/29 13:40:18;;;;;;;;;;;20.10;99.90;;;;;;6153610;23;20003;-64
2022/10/29 13:42:44;;;;;;;;;;;20.00;99.90;;;;;;6153630;23;20021;-64
2022/10/29 13:45:12;;;;;;;;;;;19.90;99.90;;;;;;6153526;23;19925;-64
2022/10/29 13:47:39;;;;;;;;;;;19.90;99.90;;;;;;6153587;23;19924;-64
2022/10/29 13:50:05;;;;;;;;;;;19.90;99.90;;;;;;6153619;23;20290;-65
2022/10/29 13:52:34;;;;;;;;;;;19.80;99.90;;;;;;6153552;23;20265;-65
2022/10/29 13:55:06;;;;;;;;;;;19.80;99.90;;;;;;6153494;23;20355;-64
2022/10/29 13:57:49;;;;;;;;;;;19.80;99.90;;;;;;6176411;22;19915;-65
2022/10/29 14:00:19;;;;;;;;;;;19.90;99.90;;;;;;6309585;22;19915;-65
2022/10/29 14:03:04;;;;;;;;;;;19.90;99.90;;;;;;6310014;22;20240;-65
2022/10/29 14:05:44;;;;;;;;;;;20.00;99.90;;;;;;6309450;22;19968;-65
2022/10/29 14:08:10;;;;;;;;;;;20.00;99.90;;;;;;6309513;22;19990;-65
2022/10/29 14:10:38;;;;;;;;;;;20.20;99.90;;;;;;6282261;22;19957;-65
2022/10/29 14:13:11;;;;;;;;;;;20.50;99.90;;;;;;6309515;22;19922;-65
2022/10/29 14:15:41;;;;;;;;;;;20.60;99.90;;;;;;6309621;22;19994;-65
2022/10/29 14:18:26;;;;;;;;;;;20.70;99.90;;;;;;6309086;22;19919;-65
2022/10/29 14:20:56;;;;;;;;;;;20.80;99.90;;;;;;6309493;22;19957;-65
2022/10/29 14:23:22;;;;;;;;;;;21.00;99.90;;;;;;6309559;22;20271;-65
2022/10/29 14:25:54;;;;;;;;;;;20.90;99.90;;;;;;6281789;22;19923;-64
2022/10/29 14:28:28;;;;;;;;;;;20.80;99.90;;;;;;6281827;22;19915;-65
2022/10/29 14:31:14;;;;;;;;;;;20.70;99.90;;;;;;6309447;22;19938;-64